Aérodrome :
LOGIN :

S'inscrire | Disclaimer

   EN    FR    IT 

 










Légende :    VFR   VFR Marginal   IFR   IFR Intensif   IFR Très Intensif
Visi : 
Plafond : 
>= 8 km
>= 3000ft
5 à 8 km
1000 à 3000 ft
1500m à 5 km
500 à 1000 ft
800 à 1500m
200 à 500 ft
< 800m
< 200 ft
Symboles :   Orages  Brouillard  Fortes neiges  Fortes précipitations  Vent > 20 kt
SIGMETs :   Divers  Orages  Givrage  Turbulence  Onde Orograph.  Cendres Volcan.







- Altitude de l'aérodrome : 12 ft
- Code IATA : NCE
- Voir les cartes d'approche


LFMN - Nice

DERNIER METAR :
  • 151430Z 10022KT 9999 FEW040 BKN130 BKN200 23/15 Q1014 NOSIG

METARs EXPIRÉS :
  • 151400Z 11021KT 9999 FEW040 BKN130 BKN200 22/15 Q1014 NOSIG
  • 151330Z 10022KT 9999 FEW040 BKN130 BKN200 22/14 Q1013 NOSIG
  • 151300Z 10022KT 9999 FEW040 BKN130 BKN200 22/15 Q1013 NOSIG
  • 151230Z 10021KT 9999 FEW040 SCT140 BKN200 22/15 Q1014 NOSIG
  • 151200Z 09021KT 9999 FEW040 BKN200 23/14 Q1014 NOSIG

TAF TAF LFMN
Valide du 15 à 15h jusqu'au 16 à 21h UTC


151400Z 1515/1621 08015KT 9999 BKN080
TEMPO 1515/1516 08025G35KT
TEMPO 1522/1603 8000 SHRA SCT020TCU OVC035
BECMG 1523/1601 34010KT
TEMPO 1608/1621 6000 SHRA SCT015TCU OVC030
TEMPO 1610/1615 08020G30KT
TEMPO 1603/1621 BKN066
ATIS : +33 4 93 17 21 16
Pas de NOTAMs connus pour ce terrain.
2 SIGMETs publiés pour la FIR Marseille (LFMM) :
 
Turbulence forte
LFMM SIGMET 13 VALID 151400/151800 LFPW
LFMM MARSEILLE FIR/UIR SEV TURB FCST WI N4400 E00245 - N4600 E00300 - N4600 E00315 - N4345 E00415 - N4345 E00700 - N4245 E00700 - N4330 E00300 - N4400 E00245 SFC/FL070 STNR NC=
Annulation du SIGMET 11
LFMM SIGMET 12 VALID 151250/151400 LFPW
LFMM MARSEILLE FIR/UIR CNL SIGMET 11 151200/151400=



MET'MAP, la Météo Aéronautique d'un coup d'oeil ! - Copyright ORBIFLY Décembre 2007 - Disclaimer

ORBIFLY MET'MAP TEAM :

Programmation & Développement : Alexandra Zaïnal
Conception & Développement : Baudouin d'Aumeries
Co-Programmation & Développement : Marc-Olivier Méhu
Soutien technique & logistique : Manuel Goepfert

Contact : metmap@orbifly.com




SOURCES & CREDITS :

   NOAA